sensor_id;sensor_type;location;lat;lon;timestamp;P1;durP1;ratioP1;P2;durP2;ratioP2
69410;SDS011;56604;48.652;9.194;2022-10-16T00:00:32;1.93;;;1.67;;
69410;SDS011;56604;48.652;9.194;2022-10-16T00:03:00;5.13;;;1.60;;
69410;SDS011;56604;48.652;9.194;2022-10-16T00:05:25;1.23;;;1.23;;
69410;SDS011;56604;48.652;9.194;2022-10-16T00:07:50;3.17;;;1.47;;
69410;SDS011;56604;48.652;9.194;2022-10-16T00:10:16;2.70;;;1.20;;
69410;SDS011;56604;48.652;9.194;2022-10-16T00:12:41;1.23;;;1.23;;
69410;SDS011;56604;48.652;9.194;2022-10-16T00:15:07;6.23;;;1.43;;
69410;SDS011;56604;48.652;9.194;2022-10-16T00:17:32;1.33;;;1.33;;
69410;SDS011;56604;48.652;9.194;2022-10-16T00:19:58;1.60;;;1.50;;
69410;SDS011;56604;48.652;9.194;2022-10-16T00:22:23;2.50;;;1.30;;
69410;SDS011;56604;48.652;9.194;2022-10-16T00:24:48;1.37;;;1.37;;
69410;SDS011;56604;48.652;9.194;2022-10-16T00:27:14;2.10;;;2.00;;
69410;SDS011;56604;48.652;9.194;2022-10-16T00:29:39;3.23;;;1.47;;
69410;SDS011;56604;48.652;9.194;2022-10-16T00:32:05;3.27;;;1.47;;
69410;SDS011;56604;48.652;9.194;2022-10-16T00:34:30;4.00;;;1.83;;
69410;SDS011;56604;48.652;9.194;2022-10-16T00:36:55;1.90;;;1.80;;
69410;SDS011;56604;48.652;9.194;2022-10-16T00:39:21;1.50;;;1.43;;
69410;SDS011;56604;48.652;9.194;2022-10-16T00:41:47;1.40;;;1.40;;
69410;SDS011;56604;48.652;9.194;2022-10-16T00:47:23;4.13;;;1.53;;
69410;SDS011;56604;48.652;9.194;2022-10-16T00:49:53;3.33;;;1.50;;
69410;SDS011;56604;48.652;9.194;2022-10-16T00:52:24;3.60;;;1.37;;
69410;SDS011;56604;48.652;9.194;2022-10-16T00:54:50;5.80;;;1.60;;
69410;SDS011;56604;48.652;9.194;2022-10-16T00:57:17;5.10;;;1.77;;
69410;SDS011;56604;48.652;9.194;2022-10-16T00:59:43;2.43;;;1.87;;
69410;SDS011;56604;48.652;9.194;2022-10-16T01:02:10;2.13;;;1.70;;
69410;SDS011;56604;48.652;9.194;2022-10-16T01:04:39;1.73;;;1.53;;
69410;SDS011;56604;48.652;9.194;2022-10-16T01:07:20;3.57;;;1.40;;
69410;SDS011;56604;48.652;9.194;2022-10-16T01:15:37;3.10;;;1.53;;
69410;SDS011;56604;48.652;9.194;2022-10-16T01:18:26;1.87;;;1.77;;
69410;SDS011;56604;48.652;9.194;2022-10-16T01:20:59;1.60;;;1.50;;
69410;SDS011;56604;48.652;9.194;2022-10-16T01:23:33;2.90;;;1.60;;
69410;SDS011;56604;48.652;9.194;2022-10-16T01:28:39;2.70;;;1.60;;
69410;SDS011;56604;48.652;9.194;2022-10-16T01:31:10;1.60;;;1.50;;
69410;SDS011;56604;48.652;9.194;2022-10-16T01:33:43;1.53;;;1.43;;
69410;SDS011;56604;48.652;9.194;2022-10-16T01:36:19;2.67;;;1.27;;
69410;SDS011;56604;48.652;9.194;2022-10-16T01:38:49;9.43;;;1.77;;
69410;SDS011;56604;48.652;9.194;2022-10-16T01:41:29;3.07;;;1.30;;
69410;SDS011;56604;48.652;9.194;2022-10-16T01:46:33;1.20;;;1.20;;
69410;SDS011;56604;48.652;9.194;2022-10-16T01:49:01;2.10;;;1.40;;
69410;SDS011;56604;48.652;9.194;2022-10-16T01:51:28;1.60;;;1.50;;
69410;SDS011;56604;48.652;9.194;2022-10-16T01:53:55;4.93;;;1.60;;
69410;SDS011;56604;48.652;9.194;2022-10-16T01:56:24;14.93;;;1.40;;
69410;SDS011;56604;48.652;9.194;2022-10-16T01:58:52;2.70;;;1.53;;
69410;SDS011;56604;48.652;9.194;2022-10-16T02:01:21;1.13;;;1.13;;
69410;SDS011;56604;48.652;9.194;2022-10-16T02:03:50;1.30;;;1.30;;
69410;SDS011;56604;48.652;9.194;2022-10-16T02:06:18;3.80;;;1.53;;
69410;SDS011;56604;48.652;9.194;2022-10-16T02:08:45;1.00;;;1.00;;
69410;SDS011;56604;48.652;9.194;2022-10-16T02:11:11;4.47;;;1.53;;
69410;SDS011;56604;48.652;9.194;2022-10-16T02:13:51;13.07;;;1.33;;
69410;SDS011;56604;48.652;9.194;2022-10-16T02:16:20;2.20;;;1.20;;
69410;SDS011;56604;48.652;9.194;2022-10-16T02:18:45;6.43;;;1.40;;
69410;SDS011;56604;48.652;9.194;2022-10-16T02:21:19;4.10;;;1.20;;
69410;SDS011;56604;48.652;9.194;2022-10-16T02:26:36;5.50;;;1.47;;
69410;SDS011;56604;48.652;9.194;2022-10-16T02:29:10;1.70;;;1.17;;
69410;SDS011;56604;48.652;9.194;2022-10-16T02:31:38;1.40;;;1.30;;
69410;SDS011;56604;48.652;9.194;2022-10-16T02:34:08;12.83;;;1.40;;
69410;SDS011;56604;48.652;9.194;2022-10-16T02:36:36;5.93;;;1.33;;
69410;SDS011;56604;48.652;9.194;2022-10-16T02:39:04;1.93;;;1.20;;
69410;SDS011;56604;48.652;9.194;2022-10-16T02:41:30;3.50;;;1.30;;
69410;SDS011;56604;48.652;9.194;2022-10-16T02:43:56;3.03;;;1.40;;
69410;SDS011;56604;48.652;9.194;2022-10-16T02:46:21;1.77;;;1.67;;
69410;SDS011;56604;48.652;9.194;2022-10-16T02:48:47;5.13;;;1.47;;
69410;SDS011;56604;48.652;9.194;2022-10-16T02:51:12;3.50;;;1.17;;
69410;SDS011;56604;48.652;9.194;2022-10-16T02:53:37;7.70;;;1.50;;
69410;SDS011;56604;48.652;9.194;2022-10-16T02:56:03;2.17;;;1.30;;
69410;SDS011;56604;48.652;9.194;2022-10-16T02:58:28;1.13;;;1.13;;
69410;SDS011;56604;48.652;9.194;2022-10-16T03:00:54;1.60;;;1.50;;
69410;SDS011;56604;48.652;9.194;2022-10-16T03:03:20;2.20;;;1.40;;
69410;SDS011;56604;48.652;9.194;2022-10-16T03:05:45;1.67;;;1.00;;
69410;SDS011;56604;48.652;9.194;2022-10-16T03:08:11;1.60;;;1.50;;
69410;SDS011;56604;48.652;9.194;2022-10-16T03:10:37;1.67;;;1.57;;
69410;SDS011;56604;48.652;9.194;2022-10-16T03:13:02;3.07;;;1.60;;
69410;SDS011;56604;48.652;9.194;2022-10-16T03:15:28;1.33;;;1.27;;
69410;SDS011;56604;48.652;9.194;2022-10-16T03:17:53;1.33;;;1.23;;
69410;SDS011;56604;48.652;9.194;2022-10-16T03:20:19;6.73;;;1.57;;
69410;SDS011;56604;48.652;9.194;2022-10-16T03:22:44;1.40;;;1.30;;
69410;SDS011;56604;48.652;9.194;2022-10-16T03:25:10;1.70;;;1.60;;
69410;SDS011;56604;48.652;9.194;2022-10-16T03:27:35;1.47;;;1.37;;
69410;SDS011;56604;48.652;9.194;2022-10-16T03:30:00;12.70;;;1.50;;
69410;SDS011;56604;48.652;9.194;2022-10-16T03:32:26;1.27;;;1.27;;
69410;SDS011;56604;48.652;9.194;2022-10-16T03:34:53;2.93;;;1.30;;
69410;SDS011;56604;48.652;9.194;2022-10-16T03:37:19;5.77;;;1.27;;
69410;SDS011;56604;48.652;9.194;2022-10-16T03:39:44;4.50;;;1.43;;
69410;SDS011;56604;48.652;9.194;2022-10-16T03:42:10;1.73;;;1.60;;
69410;SDS011;56604;48.652;9.194;2022-10-16T03:44:35;7.90;;;1.30;;
69410;SDS011;56604;48.652;9.194;2022-10-16T03:47:00;4.53;;;1.50;;
69410;SDS011;56604;48.652;9.194;2022-10-16T03:49:25;2.83;;;1.67;;
69410;SDS011;56604;48.652;9.194;2022-10-16T03:51:51;1.60;;;1.43;;
69410;SDS011;56604;48.652;9.194;2022-10-16T03:54:16;4.13;;;1.40;;
69410;SDS011;56604;48.652;9.194;2022-10-16T03:56:41;5.20;;;1.20;;
69410;SDS011;56604;48.652;9.194;2022-10-16T03:59:06;1.40;;;1.30;;
69410;SDS011;56604;48.652;9.194;2022-10-16T04:01:32;1.80;;;1.10;;
69410;SDS011;56604;48.652;9.194;2022-10-16T04:03:57;1.40;;;1.30;;
69410;SDS011;56604;48.652;9.194;2022-10-16T04:06:22;3.77;;;1.40;;
69410;SDS011;56604;48.652;9.194;2022-10-16T04:08:48;2.50;;;1.60;;
69410;SDS011;56604;48.652;9.194;2022-10-16T04:11:13;1.60;;;1.50;;
69410;SDS011;56604;48.652;9.194;2022-10-16T04:13:38;2.73;;;1.20;;
69410;SDS011;56604;48.652;9.194;2022-10-16T04:16:04;8.20;;;1.40;;
69410;SDS011;56604;48.652;9.194;2022-10-16T04:18:29;2.97;;;1.30;;
69410;SDS011;56604;48.652;9.194;2022-10-16T04:20:55;1.17;;;1.17;;
69410;SDS011;56604;48.652;9.194;2022-10-16T04:23:20;1.50;;;1.40;;
69410;SDS011;56604;48.652;9.194;2022-10-16T04:25:45;1.73;;;1.63;;
69410;SDS011;56604;48.652;9.194;2022-10-16T04:28:11;5.73;;;1.27;;
69410;SDS011;56604;48.652;9.194;2022-10-16T04:30:40;7.20;;;1.30;;
69410;SDS011;56604;48.652;9.194;2022-10-16T04:33:05;7.70;;;1.30;;
69410;SDS011;56604;48.652;9.194;2022-10-16T04:35:30;2.37;;;1.40;;
69410;SDS011;56604;48.652;9.194;2022-10-16T04:37:59;2.10;;;1.40;;
69410;SDS011;56604;48.652;9.194;2022-10-16T04:40:24;2.50;;;1.53;;
69410;SDS011;56604;48.652;9.194;2022-10-16T04:42:49;1.17;;;1.10;;
69410;SDS011;56604;48.652;9.194;2022-10-16T04:45:14;1.60;;;1.50;;
69410;SDS011;56604;48.652;9.194;2022-10-16T04:47:40;1.77;;;1.67;;
69410;SDS011;56604;48.652;9.194;2022-10-16T04:50:05;2.10;;;1.90;;
69410;SDS011;56604;48.652;9.194;2022-10-16T04:52:32;2.40;;;2.30;;
69410;SDS011;56604;48.652;9.194;2022-10-16T04:54:57;2.10;;;2.00;;
69410;SDS011;56604;48.652;9.194;2022-10-16T04:57:26;1.90;;;1.80;;
69410;SDS011;56604;48.652;9.194;2022-10-16T04:59:52;4.90;;;1.70;;
69410;SDS011;56604;48.652;9.194;2022-10-16T05:02:17;9.70;;;1.40;;
69410;SDS011;56604;48.652;9.194;2022-10-16T05:04:42;2.20;;;1.53;;
69410;SDS011;56604;48.652;9.194;2022-10-16T05:07:08;6.20;;;1.67;;
69410;SDS011;56604;48.652;9.194;2022-10-16T05:09:33;2.20;;;1.23;;
69410;SDS011;56604;48.652;9.194;2022-10-16T05:11:58;4.20;;;2.07;;
69410;SDS011;56604;48.652;9.194;2022-10-16T05:14:24;1.47;;;1.37;;
69410;SDS011;56604;48.652;9.194;2022-10-16T05:16:49;2.50;;;1.77;;
69410;SDS011;56604;48.652;9.194;2022-10-16T05:19:15;6.10;;;1.30;;
69410;SDS011;56604;48.652;9.194;2022-10-16T05:21:40;2.10;;;1.73;;
69410;SDS011;56604;48.652;9.194;2022-10-16T05:24:06;1.50;;;1.50;;
69410;SDS011;56604;48.652;9.194;2022-10-16T05:26:31;2.30;;;1.70;;
69410;SDS011;56604;48.652;9.194;2022-10-16T05:28:56;1.30;;;1.30;;
69410;SDS011;56604;48.652;9.194;2022-10-16T05:31:22;3.27;;;1.40;;
69410;SDS011;56604;48.652;9.194;2022-10-16T05:33:47;2.10;;;1.47;;
69410;SDS011;56604;48.652;9.194;2022-10-16T05:36:13;10.90;;;1.70;;
69410;SDS011;56604;48.652;9.194;2022-10-16T05:38:39;6.90;;;1.97;;
69410;SDS011;56604;48.652;9.194;2022-10-16T05:41:05;1.97;;;1.87;;
69410;SDS011;56604;48.652;9.194;2022-10-16T05:43:30;1.67;;;1.57;;
69410;SDS011;56604;48.652;9.194;2022-10-16T05:45:57;1.80;;;1.47;;
69410;SDS011;56604;48.652;9.194;2022-10-16T05:48:24;1.80;;;1.70;;
69410;SDS011;56604;48.652;9.194;2022-10-16T05:51:03;1.37;;;1.37;;
69410;SDS011;56604;48.652;9.194;2022-10-16T05:53:32;5.20;;;1.93;;
69410;SDS011;56604;48.652;9.194;2022-10-16T05:55:59;6.20;;;1.30;;
69410;SDS011;56604;48.652;9.194;2022-10-16T05:58:27;8.93;;;1.40;;
69410;SDS011;56604;48.652;9.194;2022-10-16T06:00:58;1.43;;;1.33;;
69410;SDS011;56604;48.652;9.194;2022-10-16T06:03:25;2.20;;;1.40;;
69410;SDS011;56604;48.652;9.194;2022-10-16T06:05:51;3.23;;;1.87;;
69410;SDS011;56604;48.652;9.194;2022-10-16T06:08:18;1.50;;;1.50;;
69410;SDS011;56604;48.652;9.194;2022-10-16T06:10:44;2.40;;;1.40;;
69410;SDS011;56604;48.652;9.194;2022-10-16T06:13:10;8.87;;;1.57;;
69410;SDS011;56604;48.652;9.194;2022-10-16T06:15:37;7.30;;;1.50;;
69410;SDS011;56604;48.652;9.194;2022-10-16T06:18:04;3.73;;;1.57;;
69410;SDS011;56604;48.652;9.194;2022-10-16T06:20:29;2.97;;;1.40;;
69410;SDS011;56604;48.652;9.194;2022-10-16T06:22:55;2.80;;;1.90;;
69410;SDS011;56604;48.652;9.194;2022-10-16T06:25:20;1.00;;;1.00;;
69410;SDS011;56604;48.652;9.194;2022-10-16T06:27:45;5.40;;;1.47;;
69410;SDS011;56604;48.652;9.194;2022-10-16T06:30:11;3.53;;;1.20;;
69410;SDS011;56604;48.652;9.194;2022-10-16T06:32:36;2.60;;;1.50;;
69410;SDS011;56604;48.652;9.194;2022-10-16T06:35:06;5.13;;;1.50;;
69410;SDS011;56604;48.652;9.194;2022-10-16T06:37:32;3.30;;;1.50;;
69410;SDS011;56604;48.652;9.194;2022-10-16T06:39:57;6.53;;;1.30;;
69410;SDS011;56604;48.652;9.194;2022-10-16T06:42:22;5.27;;;1.33;;
69410;SDS011;56604;48.652;9.194;2022-10-16T06:44:48;5.00;;;1.70;;
69410;SDS011;56604;48.652;9.194;2022-10-16T06:47:13;2.70;;;1.27;;
69410;SDS011;56604;48.652;9.194;2022-10-16T06:49:38;3.80;;;1.60;;
69410;SDS011;56604;48.652;9.194;2022-10-16T06:52:03;7.23;;;1.37;;
69410;SDS011;56604;48.652;9.194;2022-10-16T06:54:29;2.67;;;1.13;;
69410;SDS011;56604;48.652;9.194;2022-10-16T06:56:55;1.57;;;1.47;;
69410;SDS011;56604;48.652;9.194;2022-10-16T06:59:20;1.50;;;1.40;;
69410;SDS011;56604;48.652;9.194;2022-10-16T07:01:47;2.87;;;1.57;;
69410;SDS011;56604;48.652;9.194;2022-10-16T07:04:12;2.40;;;1.50;;
69410;SDS011;56604;48.652;9.194;2022-10-16T07:06:37;5.60;;;1.40;;
69410;SDS011;56604;48.652;9.194;2022-10-16T07:09:04;1.33;;;1.30;;
69410;SDS011;56604;48.652;9.194;2022-10-16T07:11:30;5.33;;;1.47;;
69410;SDS011;56604;48.652;9.194;2022-10-16T07:13:56;1.87;;;1.30;;
69410;SDS011;56604;48.652;9.194;2022-10-16T07:16:26;1.33;;;1.33;;
69410;SDS011;56604;48.652;9.194;2022-10-16T07:18:53;3.20;;;1.40;;
69410;SDS011;56604;48.652;9.194;2022-10-16T07:21:23;3.43;;;1.57;;
69410;SDS011;56604;48.652;9.194;2022-10-16T07:23:54;2.20;;;1.53;;
69410;SDS011;56604;48.652;9.194;2022-10-16T07:26:21;2.10;;;1.30;;
69410;SDS011;56604;48.652;9.194;2022-10-16T07:28:47;1.50;;;1.50;;
69410;SDS011;56604;48.652;9.194;2022-10-16T07:31:13;2.03;;;1.87;;
69410;SDS011;56604;48.652;9.194;2022-10-16T07:33:39;4.20;;;1.57;;
69410;SDS011;56604;48.652;9.194;2022-10-16T07:36:06;1.63;;;1.53;;
69410;SDS011;56604;48.652;9.194;2022-10-16T07:38:32;3.33;;;1.43;;
69410;SDS011;56604;48.652;9.194;2022-10-16T07:40:58;1.63;;;1.60;;
69410;SDS011;56604;48.652;9.194;2022-10-16T07:43:25;2.03;;;1.70;;
69410;SDS011;56604;48.652;9.194;2022-10-16T07:45:51;1.60;;;1.50;;
69410;SDS011;56604;48.652;9.194;2022-10-16T07:48:17;10.53;;;1.70;;
69410;SDS011;56604;48.652;9.194;2022-10-16T07:50:43;4.43;;;1.40;;
69410;SDS011;56604;48.652;9.194;2022-10-16T07:53:09;7.73;;;1.63;;
69410;SDS011;56604;48.652;9.194;2022-10-16T07:55:35;3.80;;;1.63;;
69410;SDS011;56604;48.652;9.194;2022-10-16T07:58:01;2.43;;;1.60;;
69410;SDS011;56604;48.652;9.194;2022-10-16T08:00:26;1.63;;;1.53;;
69410;SDS011;56604;48.652;9.194;2022-10-16T08:02:51;1.40;;;1.40;;
69410;SDS011;56604;48.652;9.194;2022-10-16T08:05:17;3.33;;;1.53;;
69410;SDS011;56604;48.652;9.194;2022-10-16T08:07:42;4.17;;;1.60;;
69410;SDS011;56604;48.652;9.194;2022-10-16T08:10:11;2.83;;;1.40;;
69410;SDS011;56604;48.652;9.194;2022-10-16T08:12:41;1.90;;;1.40;;
69410;SDS011;56604;48.652;9.194;2022-10-16T08:15:07;2.40;;;1.37;;
69410;SDS011;56604;48.652;9.194;2022-10-16T08:17:32;2.27;;;1.40;;
69410;SDS011;56604;48.652;9.194;2022-10-16T08:19:58;1.30;;;1.30;;
69410;SDS011;56604;48.652;9.194;2022-10-16T08:22:23;2.40;;;1.57;;
69410;SDS011;56604;48.652;9.194;2022-10-16T08:24:48;2.43;;;1.20;;
69410;SDS011;56604;48.652;9.194;2022-10-16T08:27:14;1.50;;;1.40;;
69410;SDS011;56604;48.652;9.194;2022-10-16T08:29:39;1.43;;;1.30;;
69410;SDS011;56604;48.652;9.194;2022-10-16T08:32:04;1.23;;;1.23;;
69410;SDS011;56604;48.652;9.194;2022-10-16T08:34:30;3.73;;;1.20;;
69410;SDS011;56604;48.652;9.194;2022-10-16T08:36:55;14.53;;;1.97;;
69410;SDS011;56604;48.652;9.194;2022-10-16T08:39:20;14.23;;;1.53;;
69410;SDS011;56604;48.652;9.194;2022-10-16T08:49:40;9.20;;;1.63;;
69410;SDS011;56604;48.652;9.194;2022-10-16T08:52:10;7.20;;;1.30;;
69410;SDS011;56604;48.652;9.194;2022-10-16T08:54:41;12.30;;;1.50;;
69410;SDS011;56604;48.652;9.194;2022-10-16T08:57:13;8.13;;;1.53;;
69410;SDS011;56604;48.652;9.194;2022-10-16T08:59:44;6.50;;;1.80;;
69410;SDS011;56604;48.652;9.194;2022-10-16T09:02:52;2.40;;;1.53;;
69410;SDS011;56604;48.652;9.194;2022-10-16T09:05:10;5.20;;;1.50;;
69410;SDS011;56604;48.652;9.194;2022-10-16T09:07:59;2.03;;;1.70;;
69410;SDS011;56604;48.652;9.194;2022-10-16T09:13:12;2.87;;;2.03;;
69410;SDS011;56604;48.652;9.194;2022-10-16T09:15:53;10.23;;;2.47;;
69410;SDS011;56604;48.652;9.194;2022-10-16T09:18:33;9.67;;;5.20;;
69410;SDS011;56604;48.652;9.194;2022-10-16T09:21:18;5.87;;;4.30;;
69410;SDS011;56604;48.652;9.194;2022-10-16T09:23:47;30.50;;;14.23;;
69410;SDS011;56604;48.652;9.194;2022-10-16T09:26:13;48.17;;;21.73;;
69410;SDS011;56604;48.652;9.194;2022-10-16T09:28:40;55.00;;;26.20;;
69410;SDS011;56604;48.652;9.194;2022-10-16T09:31:07;6.90;;;3.70;;
69410;SDS011;56604;48.652;9.194;2022-10-16T09:33:38;38.40;;;18.70;;
69410;SDS011;56604;48.652;9.194;2022-10-16T09:36:05;76.70;;;38.60;;
69410;SDS011;56604;48.652;9.194;2022-10-16T09:38:32;20.20;;;11.40;;
69410;SDS011;56604;48.652;9.194;2022-10-16T09:41:01;29.53;;;11.10;;
69410;SDS011;56604;48.652;9.194;2022-10-16T09:43:35;66.23;;;40.00;;
69410;SDS011;56604;48.652;9.194;2022-10-16T09:46:07;26.90;;;18.30;;
69410;SDS011;56604;48.652;9.194;2022-10-16T09:48:48;17.93;;;12.50;;
69410;SDS011;56604;48.652;9.194;2022-10-16T09:53:54;46.60;;;26.63;;
69410;SDS011;56604;48.652;9.194;2022-10-16T09:56:25;27.00;;;13.03;;
69410;SDS011;56604;48.652;9.194;2022-10-16T09:58:53;23.33;;;13.53;;
69410;SDS011;56604;48.652;9.194;2022-10-16T10:01:20;35.67;;;14.60;;
69410;SDS011;56604;48.652;9.194;2022-10-16T10:03:56;21.80;;;17.20;;
69410;SDS011;56604;48.652;9.194;2022-10-16T10:09:03;17.90;;;8.63;;
69410;SDS011;56604;48.652;9.194;2022-10-16T10:12:03;3.23;;;3.03;;
69410;SDS011;56604;48.652;9.194;2022-10-16T10:14:24;5.90;;;2.00;;
69410;SDS011;56604;48.652;9.194;2022-10-16T10:17:01;9.30;;;3.13;;
69410;SDS011;56604;48.652;9.194;2022-10-16T10:19:30;4.53;;;3.50;;
69410;SDS011;56604;48.652;9.194;2022-10-16T10:22:13;5.60;;;2.10;;
69410;SDS011;56604;48.652;9.194;2022-10-16T10:24:44;2.17;;;1.90;;
69410;SDS011;56604;48.652;9.194;2022-10-16T10:27:19;1.80;;;1.70;;
69410;SDS011;56604;48.652;9.194;2022-10-16T10:30:04;2.20;;;1.37;;
69410;SDS011;56604;48.652;9.194;2022-10-16T10:32:35;15.40;;;2.07;;
69410;SDS011;56604;48.652;9.194;2022-10-16T10:46:50;10.33;;;1.80;;
69410;SDS011;56604;48.652;9.194;2022-10-16T11:05:57;1.90;;;1.80;;
69410;SDS011;56604;48.652;9.194;2022-10-16T11:11:07;1.63;;;1.63;;
69410;SDS011;56604;48.652;9.194;2022-10-16T11:13:51;3.73;;;1.80;;
69410;SDS011;56604;48.652;9.194;2022-10-16T11:16:28;3.70;;;1.70;;
69410;SDS011;56604;48.652;9.194;2022-10-16T11:18:59;1.57;;;1.47;;
69410;SDS011;56604;48.652;9.194;2022-10-16T11:21:39;2.80;;;1.23;;
69410;SDS011;56604;48.652;9.194;2022-10-16T11:24:50;2.97;;;1.37;;
69410;SDS011;56604;48.652;9.194;2022-10-16T11:30:24;1.50;;;1.40;;
69410;SDS011;56604;48.652;9.194;2022-10-16T11:33:39;7.40;;;1.83;;
69410;SDS011;56604;48.652;9.194;2022-10-16T11:35:54;2.90;;;1.70;;
69410;SDS011;56604;48.652;9.194;2022-10-16T11:41:11;4.90;;;3.77;;
69410;SDS011;56604;48.652;9.194;2022-10-16T11:44:04;1.50;;;1.40;;
69410;SDS011;56604;48.652;9.194;2022-10-16T11:46:42;1.37;;;1.37;;
69410;SDS011;56604;48.652;9.194;2022-10-16T11:49:18;11.27;;;2.07;;
69410;SDS011;56604;48.652;9.194;2022-10-16T11:51:48;5.20;;;1.63;;
69410;SDS011;56604;48.652;9.194;2022-10-16T11:54:29;2.60;;;1.70;;
69410;SDS011;56604;48.652;9.194;2022-10-16T11:57:03;1.60;;;1.50;;
69410;SDS011;56604;48.652;9.194;2022-10-16T11:59:43;3.47;;;1.70;;
69410;SDS011;56604;48.652;9.194;2022-10-16T12:04:58;3.97;;;1.60;;
69410;SDS011;56604;48.652;9.194;2022-10-16T12:07:36;1.70;;;1.60;;
69410;SDS011;56604;48.652;9.194;2022-10-16T12:10:17;2.30;;;1.43;;
69410;SDS011;56604;48.652;9.194;2022-10-16T12:12:45;18.03;;;1.90;;
69410;SDS011;56604;48.652;9.194;2022-10-16T12:15:19;2.30;;;2.10;;
69410;SDS011;56604;48.652;9.194;2022-10-16T12:17:47;2.63;;;2.00;;
69410;SDS011;56604;48.652;9.194;2022-10-16T12:22:51;1.60;;;1.50;;
69410;SDS011;56604;48.652;9.194;2022-10-16T12:25:36;1.80;;;1.70;;
69410;SDS011;56604;48.652;9.194;2022-10-16T12:28:19;3.03;;;1.50;;
69410;SDS011;56604;48.652;9.194;2022-10-16T12:30:56;1.63;;;1.53;;
69410;SDS011;56604;48.652;9.194;2022-10-16T12:33:28;10.27;;;1.80;;
69410;SDS011;56604;48.652;9.194;2022-10-16T12:35:56;2.00;;;1.90;;
69410;SDS011;56604;48.652;9.194;2022-10-16T12:40:56;6.70;;;2.23;;
69410;SDS011;56604;48.652;9.194;2022-10-16T12:43:42;2.40;;;1.90;;
69410;SDS011;56604;48.652;9.194;2022-10-16T12:48:37;3.17;;;2.17;;
69410;SDS011;56604;48.652;9.194;2022-10-16T12:51:11;1.67;;;1.67;;
69410;SDS011;56604;48.652;9.194;2022-10-16T12:53:57;2.93;;;2.27;;
69410;SDS011;56604;48.652;9.194;2022-10-16T12:56:40;2.00;;;1.80;;
69410;SDS011;56604;48.652;9.194;2022-10-16T12:59:15;4.70;;;1.80;;
69410;SDS011;56604;48.652;9.194;2022-10-16T13:07:15;2.20;;;1.83;;
69410;SDS011;56604;48.652;9.194;2022-10-16T13:21:33;1.80;;;1.70;;
69410;SDS011;56604;48.652;9.194;2022-10-16T13:29:54;2.73;;;1.77;;
69410;SDS011;56604;48.652;9.194;2022-10-16T13:32:27;1.93;;;1.80;;
69410;SDS011;56604;48.652;9.194;2022-10-16T13:34:53;1.70;;;1.60;;
69410;SDS011;56604;48.652;9.194;2022-10-16T13:37:20;4.30;;;1.70;;
69410;SDS011;56604;48.652;9.194;2022-10-16T13:39:47;2.40;;;2.03;;
69410;SDS011;56604;48.652;9.194;2022-10-16T13:42:34;1.80;;;1.70;;
69410;SDS011;56604;48.652;9.194;2022-10-16T13:44:58;2.33;;;1.67;;
69410;SDS011;56604;48.652;9.194;2022-10-16T13:47:24;3.63;;;1.93;;
69410;SDS011;56604;48.652;9.194;2022-10-16T13:52:43;5.03;;;1.90;;
69410;SDS011;56604;48.652;9.194;2022-10-16T13:55:18;1.50;;;1.40;;
69410;SDS011;56604;48.652;9.194;2022-10-16T13:57:43;1.70;;;1.60;;
69410;SDS011;56604;48.652;9.194;2022-10-16T14:00:20;8.97;;;1.90;;
69410;SDS011;56604;48.652;9.194;2022-10-16T14:02:51;2.20;;;1.97;;
69410;SDS011;56604;48.652;9.194;2022-10-16T14:05:23;11.53;;;2.30;;
69410;SDS011;56604;48.652;9.194;2022-10-16T14:07:49;1.97;;;1.90;;
69410;SDS011;56604;48.652;9.194;2022-10-16T14:10:20;2.13;;;1.93;;
69410;SDS011;56604;48.652;9.194;2022-10-16T14:12:54;2.00;;;1.90;;
69410;SDS011;56604;48.652;9.194;2022-10-16T14:15:24;4.83;;;1.70;;
69410;SDS011;56604;48.652;9.194;2022-10-16T14:17:50;4.40;;;2.40;;
69410;SDS011;56604;48.652;9.194;2022-10-16T14:20:17;7.77;;;1.77;;
69410;SDS011;56604;48.652;9.194;2022-10-16T14:22:44;2.20;;;2.10;;
69410;SDS011;56604;48.652;9.194;2022-10-16T14:27:45;2.90;;;2.17;;
69410;SDS011;56604;48.652;9.194;2022-10-16T14:30:21;8.80;;;1.73;;
69410;SDS011;56604;48.652;9.194;2022-10-16T14:35:38;3.77;;;1.87;;
69410;SDS011;56604;48.652;9.194;2022-10-16T14:38:05;2.47;;;2.33;;
69410;SDS011;56604;48.652;9.194;2022-10-16T14:40:45;14.10;;;3.03;;
69410;SDS011;56604;48.652;9.194;2022-10-16T14:43:26;2.00;;;1.90;;
69410;SDS011;56604;48.652;9.194;2022-10-16T14:45:57;8.20;;;1.80;;
69410;SDS011;56604;48.652;9.194;2022-10-16T14:48:22;1.83;;;1.83;;
69410;SDS011;56604;48.652;9.194;2022-10-16T14:50:49;4.30;;;2.10;;
69410;SDS011;56604;48.652;9.194;2022-10-16T14:53:15;5.23;;;1.97;;
69410;SDS011;56604;48.652;9.194;2022-10-16T14:55:41;4.73;;;1.90;;
69410;SDS011;56604;48.652;9.194;2022-10-16T14:58:17;10.00;;;2.10;;
69410;SDS011;56604;48.652;9.194;2022-10-16T15:00:45;3.23;;;2.27;;
69410;SDS011;56604;48.652;9.194;2022-10-16T15:03:11;3.80;;;2.30;;
69410;SDS011;56604;48.652;9.194;2022-10-16T15:05:36;2.57;;;2.00;;
69410;SDS011;56604;48.652;9.194;2022-10-16T15:08:02;4.37;;;2.00;;
69410;SDS011;56604;48.652;9.194;2022-10-16T15:10:29;2.03;;;1.90;;
69410;SDS011;56604;48.652;9.194;2022-10-16T15:12:58;2.67;;;1.90;;
69410;SDS011;56604;48.652;9.194;2022-10-16T15:17:52;2.40;;;1.80;;
69410;SDS011;56604;48.652;9.194;2022-10-16T15:20:20;6.50;;;2.40;;
69410;SDS011;56604;48.652;9.194;2022-10-16T15:22:46;6.93;;;2.10;;
69410;SDS011;56604;48.652;9.194;2022-10-16T15:25:34;4.63;;;2.10;;
69410;SDS011;56604;48.652;9.194;2022-10-16T15:28:07;4.93;;;1.93;;
69410;SDS011;56604;48.652;9.194;2022-10-16T15:30:34;2.60;;;2.40;;
69410;SDS011;56604;48.652;9.194;2022-10-16T15:33:00;5.10;;;1.83;;
69410;SDS011;56604;48.652;9.194;2022-10-16T15:35:26;2.30;;;2.10;;
69410;SDS011;56604;48.652;9.194;2022-10-16T15:37:52;1.90;;;1.80;;
69410;SDS011;56604;48.652;9.194;2022-10-16T15:40:17;2.57;;;2.37;;
69410;SDS011;56604;48.652;9.194;2022-10-16T15:42:44;6.63;;;2.23;;
69410;SDS011;56604;48.652;9.194;2022-10-16T15:45:10;3.67;;;2.27;;
69410;SDS011;56604;48.652;9.194;2022-10-16T15:47:36;6.63;;;2.23;;
69410;SDS011;56604;48.652;9.194;2022-10-16T15:50:01;4.47;;;2.20;;
69410;SDS011;56604;48.652;9.194;2022-10-16T15:52:27;9.60;;;2.27;;
69410;SDS011;56604;48.652;9.194;2022-10-16T15:54:54;7.33;;;1.93;;
69410;SDS011;56604;48.652;9.194;2022-10-16T15:57:19;5.37;;;2.17;;
69410;SDS011;56604;48.652;9.194;2022-10-16T15:59:45;5.27;;;1.97;;
69410;SDS011;56604;48.652;9.194;2022-10-16T16:02:10;2.37;;;2.27;;
69410;SDS011;56604;48.652;9.194;2022-10-16T16:04:35;4.90;;;2.33;;
69410;SDS011;56604;48.652;9.194;2022-10-16T16:07:01;4.10;;;2.27;;
69410;SDS011;56604;48.652;9.194;2022-10-16T16:09:26;3.13;;;2.23;;
69410;SDS011;56604;48.652;9.194;2022-10-16T16:11:54;2.30;;;1.90;;
69410;SDS011;56604;48.652;9.194;2022-10-16T16:14:19;2.43;;;2.23;;
69410;SDS011;56604;48.652;9.194;2022-10-16T16:16:44;2.70;;;2.03;;
69410;SDS011;56604;48.652;9.194;2022-10-16T16:19:10;5.17;;;1.87;;
69410;SDS011;56604;48.652;9.194;2022-10-16T16:21:35;20.67;;;2.30;;
69410;SDS011;56604;48.652;9.194;2022-10-16T16:24:00;16.27;;;2.20;;
69410;SDS011;56604;48.652;9.194;2022-10-16T16:26:32;8.20;;;2.90;;
69410;SDS011;56604;48.652;9.194;2022-10-16T16:29:01;3.53;;;2.40;;
69410;SDS011;56604;48.652;9.194;2022-10-16T16:31:28;13.37;;;2.70;;
69410;SDS011;56604;48.652;9.194;2022-10-16T16:33:55;8.63;;;2.50;;
69410;SDS011;56604;48.652;9.194;2022-10-16T16:36:24;10.80;;;2.30;;
69410;SDS011;56604;48.652;9.194;2022-10-16T16:38:50;2.60;;;2.00;;
69410;SDS011;56604;48.652;9.194;2022-10-16T16:41:20;3.03;;;2.20;;
69410;SDS011;56604;48.652;9.194;2022-10-16T16:43:47;2.47;;;2.27;;
69410;SDS011;56604;48.652;9.194;2022-10-16T16:46:13;2.60;;;2.40;;
69410;SDS011;56604;48.652;9.194;2022-10-16T16:48:39;6.73;;;2.67;;